Terminal Aerodrome Forecast
Issued by NWS

Home | Current Version | Previous Version | Text Only | Print | Product List | Glossary On
Versions: 1 2 3 4 5 6 7 8 9 10 11 12
000
FTUS45 KTFX 222335
TAFBZN
TAF
KBZN 222335Z 2300/2324 07011KT P6SM SCT050 BKN070
      TEMPO 2300/2302 VRB15G35KT -TSRA BKN050CB
     FM230600 14006KT P6SM VCSH SCT025 OVC040
     FM231500 VRB06KT P6SM SCT040 BKN090
     FM232100 VRB06KT P6SM -SHRA SCT060 BKN080 PROB30 2322/2324
      -TSRA BKN045CB=

USA.gov is the U.S. government's official web portal to all federal, state and local government web resources and services.